createdAt,value
2019-01-12T00:00:19.005Z,-393.20
2019-01-12T00:01:19.000Z,-396.92
2019-01-12T00:02:18.991Z,-393.65
2019-01-12T00:03:18.975Z,-397.20
2019-01-12T00:04:19.912Z,-392.36
2019-01-12T00:05:19.004Z,-393.88
2019-01-12T00:06:18.937Z,-396.70
2019-01-12T00:07:18.925Z,-397.55
2019-01-12T00:08:18.918Z,-400.48
2019-01-12T00:09:18.964Z,-400.05
2019-01-12T00:10:19.908Z,-397.50
2019-01-12T00:11:19.010Z,-397.00
2019-01-12T00:12:18.872Z,-398.81
2019-01-12T00:13:18.862Z,-392.94
2019-01-12T00:14:18.859Z,-394.42
2019-01-12T00:15:18.844Z,-399.21
2019-01-12T00:16:18.836Z,-397.97
2019-01-12T00:17:18.824Z,-397.82
2019-01-12T00:18:18.837Z,-397.25
2019-01-12T00:19:18.802Z,-399.01
2019-01-12T00:20:20.414Z,-398.17
2019-01-12T00:21:18.812Z,-396.50
2019-01-12T00:22:18.808Z,-399.15
2019-01-12T00:23:18.776Z,-396.91
2019-01-12T00:24:18.749Z,-399.85
2019-01-12T00:25:18.735Z,-398.33
2019-01-12T00:26:18.741Z,-393.26
2019-01-12T00:27:18.714Z,-393.23
2019-01-12T00:28:18.709Z,-392.77
2019-01-12T00:29:18.696Z,-395.73
2019-01-12T00:30:18.682Z,-397.55
2019-01-12T00:31:18.887Z,-398.86
2019-01-12T00:32:19.417Z,-391.79
2019-01-12T00:33:18.923Z,-400.84
2019-01-12T00:34:18.658Z,-395.56
2019-01-12T00:35:18.627Z,-395.85
2019-01-12T00:36:18.631Z,-394.15
2019-01-12T00:37:18.619Z,-397.09
2019-01-12T00:38:19.413Z,-395.31
2019-01-12T00:39:18.596Z,-397.37
2019-01-12T00:40:18.565Z,-395.83
2019-01-12T00:41:18.554Z,-395.55
2019-01-12T00:42:18.564Z,-396.09
2019-01-12T00:43:18.536Z,-396.06
2019-01-12T00:44:18.522Z,-397.36
2019-01-12T00:45:18.533Z,-392.47
2019-01-12T00:46:18.505Z,-396.86
2019-01-12T00:47:18.498Z,-396.29
2019-01-12T00:48:19.415Z,-392.27
2019-01-12T00:49:18.475Z,-395.99
2019-01-12T00:50:18.464Z,-396.31
2019-01-12T00:51:18.537Z,-393.97
2019-01-12T00:52:18.434Z,-396.45
2019-01-12T00:53:18.431Z,-394.89
2019-01-12T00:54:19.419Z,-396.11
2019-01-12T00:55:26.552Z,-393.99
2019-01-12T00:57:29.540Z,-323.83
2019-01-12T00:59:39.411Z,-326.28
2019-01-12T01:00:39.403Z,-393.36
2019-01-12T01:01:39.398Z,-396.80
2019-01-12T01:02:39.451Z,-394.35
2019-01-12T01:03:40.359Z,-399.75
2019-01-12T01:04:39.372Z,-398.06
2019-01-12T01:05:39.383Z,-398.59
2019-01-12T01:06:39.343Z,-392.07
2019-01-12T01:07:39.346Z,-398.00
2019-01-12T01:08:39.338Z,-399.25
2019-01-12T01:09:39.325Z,-394.77
2019-01-12T01:10:39.304Z,-398.04
2019-01-12T01:11:39.278Z,-396.14
2019-01-12T01:12:39.296Z,-396.91
2019-01-12T01:13:39.280Z,-399.04
2019-01-12T01:14:39.251Z,-396.32
2019-01-12T01:15:39.280Z,-398.32
2019-01-12T01:16:39.231Z,-392.53
2019-01-12T01:17:39.287Z,-395.12
2019-01-12T01:18:39.511Z,-394.39
2019-01-12T01:19:39.262Z,-393.37
2019-01-12T01:20:40.011Z,-395.46
2019-01-12T01:21:40.007Z,-394.63
2019-01-12T01:22:40.944Z,-399.95
2019-01-12T01:23:40.008Z,-399.59
2019-01-12T01:24:45.562Z,-400.19
2019-01-12T01:25:40.685Z,-401.19
2019-01-12T01:26:39.121Z,-394.45
2019-01-12T01:27:39.117Z,-397.31
2019-01-12T01:28:39.538Z,-395.96
2019-01-12T01:29:41.001Z,-394.21
2019-01-12T01:30:39.078Z,-399.27
2019-01-12T01:31:39.143Z,-395.92
2019-01-12T01:32:39.065Z,-401.02
2019-01-12T01:33:39.061Z,-397.86
2019-01-12T01:34:39.085Z,-401.28
2019-01-12T01:35:39.024Z,-398.00
2019-01-12T01:36:39.009Z,-396.92
2019-01-12T01:37:39.023Z,-398.21
2019-01-12T01:38:38.992Z,-396.59
2019-01-12T01:39:38.997Z,-397.03
2019-01-12T01:40:40.523Z,-394.70
2019-01-12T01:41:39.950Z,-396.92
2019-01-12T01:42:38.962Z,-397.27
2019-01-12T01:43:38.932Z,-398.38
2019-01-12T01:44:38.932Z,-401.02
2019-01-12T01:45:41.519Z,-397.93
2019-01-12T01:46:41.510Z,-396.21
2019-01-12T01:47:38.896Z,-394.43
2019-01-12T01:48:38.907Z,-395.11
2019-01-12T01:49:38.878Z,-391.17
2019-01-12T01:50:38.868Z,-398.55
2019-01-12T01:51:40.518Z,-397.63
2019-01-12T01:52:38.848Z,-397.70
2019-01-12T01:53:38.912Z,-396.36
2019-01-12T01:54:38.821Z,-392.47
2019-01-12T01:55:38.818Z,-395.93
2019-01-12T01:56:38.809Z,-395.64
2019-01-12T01:57:38.788Z,-398.90
2019-01-12T01:58:38.782Z,-394.92
2019-01-12T01:59:38.804Z,-394.44
2019-01-12T02:00:38.754Z,-395.58
2019-01-12T02:01:38.749Z,-393.95
2019-01-12T02:02:38.732Z,-399.19
2019-01-12T02:03:38.722Z,-399.33
2019-01-12T02:04:39.510Z,-394.40
2019-01-12T02:05:38.731Z,-396.00
2019-01-12T02:06:38.711Z,-396.91
2019-01-12T02:07:38.679Z,-394.36
2019-01-12T02:08:38.670Z,-394.21
2019-01-12T02:09:38.664Z,-395.38
2019-01-12T02:10:38.664Z,-395.40
2019-01-12T02:11:38.660Z,-396.08
2019-01-12T02:12:38.627Z,-392.58
2019-01-12T02:13:39.517Z,-397.17
2019-01-12T02:14:38.603Z,-395.91
2019-01-12T02:15:38.590Z,-398.41
2019-01-12T02:16:38.593Z,-394.94
2019-01-12T02:17:40.510Z,-397.99
2019-01-12T02:18:38.584Z,-396.61
2019-01-12T02:19:38.552Z,-396.23
2019-01-12T02:20:38.544Z,-392.27
2019-01-12T02:21:38.531Z,-396.60
2019-01-12T02:22:38.538Z,-394.76
2019-01-12T02:23:38.536Z,-396.52
2019-01-12T02:24:38.513Z,-392.13
2019-01-12T02:25:38.489Z,-395.77
2019-01-12T02:26:38.482Z,-396.41
2019-01-12T02:27:38.467Z,-394.74
2019-01-12T02:28:38.530Z,-392.87
2019-01-12T02:29:39.012Z,-393.50
2019-01-12T02:30:38.435Z,-396.06
2019-01-12T02:31:38.432Z,-396.76
2019-01-12T02:32:38.415Z,-395.15
2019-01-12T02:33:38.423Z,-395.28
2019-01-12T02:34:38.409Z,-394.12
2019-01-12T02:35:38.486Z,-393.87
2019-01-12T02:36:38.374Z,-392.41
2019-01-12T02:37:38.362Z,-393.12
2019-01-12T02:38:38.352Z,-395.89
2019-01-12T02:39:39.020Z,-395.80
2019-01-12T02:40:38.348Z,-395.20
2019-01-12T02:41:38.325Z,-393.77
2019-01-12T02:42:38.305Z,-392.15
2019-01-12T02:43:38.294Z,-387.61
2019-01-12T02:44:38.286Z,-391.37
2019-01-12T02:45:38.274Z,-391.92
2019-01-12T02:46:38.287Z,-391.52
2019-01-12T02:47:38.249Z,-390.94
2019-01-12T02:48:38.246Z,-388.43
2019-01-12T02:49:38.233Z,-392.88
2019-01-12T02:50:40.019Z,-390.79
2019-01-12T02:51:38.213Z,-395.34
2019-01-12T02:52:38.219Z,-395.92
2019-01-12T02:53:38.191Z,-396.09
2019-01-12T02:54:38.183Z,-393.32
2019-01-12T02:55:38.172Z,-393.41
2019-01-12T02:56:38.157Z,-398.19
2019-01-12T02:57:38.158Z,-390.56
2019-01-12T02:58:38.151Z,-394.99
2019-01-12T02:59:38.121Z,-394.31
2019-01-12T03:00:38.115Z,-396.78
2019-01-12T03:01:38.101Z,-398.46
2019-01-12T03:02:38.103Z,-395.86
2019-01-12T03:03:38.104Z,-389.46
2019-01-12T03:04:38.074Z,-394.19
2019-01-12T03:05:38.083Z,-393.76
2019-01-12T03:06:38.050Z,-357.24
2019-01-12T03:07:38.047Z,-370.45
2019-01-12T03:08:38.028Z,-373.29
2019-01-12T03:09:38.032Z,-382.47
2019-01-12T03:10:38.012Z,-392.24
2019-01-12T03:11:38.004Z,-386.71
2019-01-12T03:12:37.985Z,-390.37
2019-01-12T03:13:37.976Z,-398.56
2019-01-12T03:14:37.962Z,-396.23
2019-01-12T03:15:37.966Z,-403.78
2019-01-12T03:16:37.955Z,-398.24
2019-01-12T03:17:37.943Z,-399.55
2019-01-12T03:18:37.947Z,-404.52
2019-01-12T03:19:37.914Z,-400.78
2019-01-12T03:20:37.913Z,-400.08
2019-01-12T03:21:37.892Z,-398.43
2019-01-12T03:22:37.873Z,-396.05
2019-01-12T03:23:37.894Z,-397.96
2019-01-12T03:24:37.860Z,-396.86
2019-01-12T03:25:37.856Z,-398.04
2019-01-12T03:26:37.835Z,-395.72
2019-01-12T03:27:37.819Z,-395.83
2019-01-12T03:28:37.829Z,-396.11
2019-01-12T03:29:37.800Z,-398.95
2019-01-12T03:30:37.799Z,-397.78
2019-01-12T03:31:37.782Z,-398.46
2019-01-12T03:32:37.781Z,-399.87
2019-01-12T03:33:37.756Z,-396.58
2019-01-12T03:34:37.764Z,-399.12
2019-01-12T03:35:37.737Z,-396.52
2019-01-12T03:36:37.726Z,-392.88
2019-01-12T03:37:37.727Z,-394.42
2019-01-12T03:38:37.717Z,-393.01
2019-01-12T03:39:37.713Z,-395.43
2019-01-12T03:40:37.693Z,-394.62
2019-01-12T03:41:37.680Z,-394.34
2019-01-12T03:42:37.660Z,-393.07
2019-01-12T03:43:37.654Z,-391.99
2019-01-12T03:44:37.673Z,-390.36
2019-01-12T03:45:37.655Z,-395.40
2019-01-12T03:46:37.625Z,-399.13
2019-01-12T03:47:37.610Z,-398.48
2019-01-12T03:48:37.599Z,-395.66
2019-01-12T03:49:37.595Z,-395.77
2019-01-12T03:50:37.579Z,-392.73
2019-01-12T03:51:37.581Z,-397.77
2019-01-12T03:52:37.561Z,-398.23
2019-01-12T03:53:37.574Z,-394.91
2019-01-12T03:54:37.541Z,-392.71
2019-01-12T03:55:37.518Z,-394.33
2019-01-12T03:56:37.513Z,-393.82
2019-01-12T03:57:37.526Z,-388.84
2019-01-12T03:58:37.489Z,-391.32
2019-01-12T03:59:37.484Z,-390.26
2019-01-12T04:00:37.465Z,-392.39
2019-01-12T04:01:37.454Z,-393.73
2019-01-12T04:02:37.468Z,-388.31
2019-01-12T04:03:37.436Z,-391.79
2019-01-12T04:04:38.042Z,-387.97
2019-01-12T04:05:37.421Z,-391.19
2019-01-12T04:06:37.407Z,-389.76
2019-01-12T04:07:37.400Z,-390.10
2019-01-12T04:08:37.404Z,-390.84
2019-01-12T04:09:37.379Z,-390.29
2019-01-12T04:10:37.373Z,-388.57
2019-01-12T04:11:37.358Z,-389.52
2019-01-12T04:12:37.346Z,-391.47
2019-01-12T04:13:37.351Z,-387.66
2019-01-12T04:14:37.318Z,-389.86
2019-01-12T04:15:37.309Z,-392.61
2019-01-12T04:16:37.311Z,-391.65
2019-01-12T04:17:37.307Z,-390.44
2019-01-12T04:18:37.278Z,-392.87
2019-01-12T04:19:37.283Z,-390.05
2019-01-12T04:20:37.255Z,-387.46
2019-01-12T04:21:37.248Z,-391.12
2019-01-12T04:22:37.240Z,-392.15
2019-01-12T04:23:37.225Z,-389.79
2019-01-12T04:24:37.219Z,-390.07
2019-01-12T04:25:37.219Z,-387.82
2019-01-12T04:26:37.197Z,-387.60
2019-01-12T04:27:37.189Z,-389.61
2019-01-12T04:28:37.188Z,-391.42
2019-01-12T04:29:37.166Z,-389.75
2019-01-12T04:30:37.150Z,-390.14
2019-01-12T04:31:37.160Z,-392.07
2019-01-12T04:32:37.126Z,-393.62
2019-01-12T04:33:37.134Z,-387.80
2019-01-12T04:34:37.110Z,-391.18
2019-01-12T04:35:37.109Z,-392.51
2019-01-12T04:36:37.092Z,-392.69
2019-01-12T04:37:37.074Z,-388.30
2019-01-12T04:38:37.067Z,-391.37
2019-01-12T04:39:38.540Z,-387.31
2019-01-12T04:40:37.049Z,-390.63
2019-01-12T04:41:37.030Z,-390.51
2019-01-12T04:42:37.023Z,-386.75
2019-01-12T04:43:37.011Z,-389.72
2019-01-12T04:44:37.004Z,-388.81
2019-01-12T04:45:37.005Z,-388.72
2019-01-12T04:46:36.986Z,-386.74
2019-01-12T04:47:36.971Z,-391.53
2019-01-12T04:48:36.957Z,-389.12
2019-01-12T04:49:36.948Z,-393.11
2019-01-12T04:50:36.939Z,-391.93
2019-01-12T04:51:36.954Z,-391.85
2019-01-12T04:52:36.918Z,-390.36
2019-01-12T04:53:36.935Z,-389.52
2019-01-12T04:54:36.898Z,-388.04
2019-01-12T04:55:41.229Z,-384.60
2019-01-12T04:56:36.874Z,-389.83
2019-01-12T04:57:36.883Z,-390.11
2019-01-12T04:58:36.858Z,-390.23
2019-01-12T04:59:36.863Z,-390.73
2019-01-12T05:00:36.839Z,-389.26
2019-01-12T05:01:36.816Z,-391.51
2019-01-12T05:02:36.826Z,-385.79
2019-01-12T05:03:38.526Z,-391.47
2019-01-12T05:04:36.785Z,-388.87
2019-01-12T05:05:36.773Z,-390.68
2019-01-12T05:06:36.766Z,-388.90
2019-01-12T05:07:36.764Z,-389.27
2019-01-12T05:08:36.761Z,-388.32
2019-01-12T05:09:36.733Z,-387.32
2019-01-12T05:10:43.971Z,-386.45
2019-01-12T05:11:44.451Z,-390.05
2019-01-12T05:12:36.702Z,-388.11
2019-01-12T05:13:44.310Z,-391.70
2019-01-12T05:14:44.885Z,-387.94
2019-01-12T05:15:36.674Z,-389.09
2019-01-12T05:16:36.691Z,-390.85
2019-01-12T05:17:36.655Z,-389.27
2019-01-12T05:18:36.643Z,-390.24
2019-01-12T05:19:36.628Z,-389.64
2019-01-12T05:20:36.621Z,-389.39
2019-01-12T05:21:36.617Z,-390.75
2019-01-12T05:22:36.618Z,-391.10
2019-01-12T05:23:37.582Z,-391.10
2019-01-12T05:24:36.577Z,-393.09
2019-01-12T05:25:36.576Z,-390.21
2019-01-12T05:26:36.558Z,-388.54
2019-01-12T05:27:36.552Z,-391.35
2019-01-12T05:28:36.558Z,-389.60
2019-01-12T05:29:38.183Z,-387.10
2019-01-12T05:30:36.507Z,-389.62
2019-01-12T05:31:36.504Z,-389.41
2019-01-12T05:32:36.488Z,-386.68
2019-01-12T05:33:36.482Z,-387.18
2019-01-12T05:34:36.480Z,-388.84
2019-01-12T05:35:36.453Z,-389.80
2019-01-12T05:36:36.454Z,-393.29
2019-01-12T05:37:36.443Z,-389.69
2019-01-12T05:38:36.467Z,-391.67
2019-01-12T05:39:36.408Z,-388.65
2019-01-12T05:40:36.401Z,-388.39
2019-01-12T05:41:36.390Z,-388.32
2019-01-12T05:42:36.377Z,-390.04
2019-01-12T05:43:36.366Z,-391.88
2019-01-12T05:44:36.391Z,-391.61
2019-01-12T05:45:36.346Z,-390.71
2019-01-12T05:46:36.331Z,-388.06
2019-01-12T05:47:36.326Z,-389.23
2019-01-12T05:48:36.314Z,-390.69
2019-01-12T05:49:36.309Z,-389.92
2019-01-12T05:50:36.311Z,-392.41
2019-01-12T05:51:36.282Z,-388.33
2019-01-12T05:52:37.187Z,-395.12
2019-01-12T05:53:36.266Z,-393.83
2019-01-12T05:54:38.185Z,-395.34
2019-01-12T05:55:36.242Z,-396.55
2019-01-12T05:56:36.248Z,-393.39
2019-01-12T05:57:36.219Z,-392.27
2019-01-12T05:58:36.201Z,-392.88
2019-01-12T05:59:36.199Z,-396.61
2019-01-12T06:00:36.186Z,-397.44
2019-01-12T06:01:36.180Z,-392.79
2019-01-12T06:02:36.187Z,-394.88
2019-01-12T06:03:36.156Z,-397.21
2019-01-12T06:04:36.147Z,-392.28
2019-01-12T06:05:36.128Z,-396.56
2019-01-12T06:06:36.122Z,-397.59
2019-01-12T06:07:36.126Z,-397.26
2019-01-12T06:08:36.115Z,-394.09
2019-01-12T06:09:36.089Z,-393.74
2019-01-12T06:10:36.081Z,-391.57
2019-01-12T06:11:36.066Z,-395.83
2019-01-12T06:12:36.082Z,-394.61
2019-01-12T06:13:36.050Z,-395.95
2019-01-12T06:14:36.037Z,-397.99
2019-01-12T06:15:36.021Z,-394.96
2019-01-12T06:16:36.015Z,-395.53
2019-01-12T06:17:36.014Z,-393.11
2019-01-12T06:18:35.999Z,-393.11
2019-01-12T06:19:36.000Z,-395.99
2019-01-12T06:20:35.968Z,-395.85
2019-01-12T06:21:35.955Z,-394.10
2019-01-12T06:22:35.949Z,-393.61
2019-01-12T06:23:36.740Z,-390.63
2019-01-12T06:24:35.926Z,-392.93
2019-01-12T06:25:35.919Z,-388.77
2019-01-12T06:26:35.905Z,-392.30
2019-01-12T06:27:35.893Z,-386.16
2019-01-12T06:28:35.882Z,-385.32
2019-01-12T06:29:35.888Z,-389.03
2019-01-12T06:30:36.880Z,-384.74
2019-01-12T06:31:39.785Z,-388.69
2019-01-12T06:32:36.917Z,-386.63
2019-01-12T06:33:38.703Z,-386.57
2019-01-12T06:34:51.378Z,-389.42
2019-01-12T06:35:47.003Z,-390.09
2019-01-12T06:36:37.702Z,-384.29
2019-01-12T06:37:38.723Z,-393.56
2019-01-12T06:38:46.855Z,-384.47
2019-01-12T06:39:36.212Z,-388.57
2019-01-12T06:40:35.783Z,-390.04
2019-01-12T06:41:35.756Z,-390.75
2019-01-12T06:42:35.731Z,-395.55
2019-01-12T06:43:35.736Z,-393.63
2019-01-12T06:44:35.717Z,-390.95
2019-01-12T06:45:35.722Z,-393.39
2019-01-12T06:46:35.699Z,-392.21
2019-01-12T06:47:35.683Z,-392.21
2019-01-12T06:48:35.670Z,-390.21
2019-01-12T06:49:35.669Z,-390.29
2019-01-12T06:50:35.647Z,-388.58
2019-01-12T06:51:35.724Z,-392.11
2019-01-12T06:52:35.631Z,-392.56
2019-01-12T06:53:35.622Z,-390.84
2019-01-12T06:54:35.603Z,-390.90
2019-01-12T06:55:35.590Z,-395.24
2019-01-12T06:56:35.592Z,-391.12
2019-01-12T06:57:35.596Z,-392.84
2019-01-12T06:58:35.579Z,-394.06
2019-01-12T06:59:35.564Z,-393.02
2019-01-12T07:00:36.191Z,-389.34
2019-01-12T07:01:35.531Z,-388.65
2019-01-12T07:02:35.542Z,-389.72
2019-01-12T07:03:35.517Z,-388.99
2019-01-12T07:04:35.500Z,-388.94
2019-01-12T07:05:35.498Z,-390.47
2019-01-12T07:06:35.480Z,-391.85
2019-01-12T07:07:35.471Z,-389.85
2019-01-12T07:08:35.473Z,-384.02
2019-01-12T07:09:35.446Z,-382.72
2019-01-12T07:10:35.431Z,-382.29
2019-01-12T07:11:35.994Z,-385.67
2019-01-12T07:12:35.411Z,-384.22
2019-01-12T07:13:35.406Z,-385.84
2019-01-12T07:14:35.437Z,-385.71
2019-01-12T07:15:35.382Z,-389.07
2019-01-12T07:16:36.397Z,-392.68
2019-01-12T07:17:35.377Z,-389.63
2019-01-12T07:18:35.398Z,-387.45
2019-01-12T07:19:35.342Z,-392.85
2019-01-12T07:20:35.330Z,-390.98
2019-01-12T07:21:35.319Z,-391.57
2019-01-12T07:22:35.311Z,-394.23
2019-01-12T07:23:35.300Z,-394.48
2019-01-12T07:24:36.198Z,-391.29
2019-01-12T07:25:35.282Z,-391.46
2019-01-12T07:26:35.264Z,-393.07
2019-01-12T07:27:35.259Z,-395.05
2019-01-12T07:28:35.247Z,-389.47
2019-01-12T07:29:35.253Z,-390.79
2019-01-12T07:30:36.222Z,-390.29
2019-01-12T07:31:35.215Z,-393.54
2019-01-12T07:32:36.227Z,-390.94
2019-01-12T07:33:35.714Z,-393.07
2019-01-12T07:34:35.182Z,-387.38
2019-01-12T07:35:35.185Z,-387.77
2019-01-12T07:36:35.182Z,-393.17
2019-01-12T07:37:35.155Z,-387.99
2019-01-12T07:38:35.137Z,-386.13
2019-01-12T07:39:35.128Z,-385.88
2019-01-12T07:40:35.129Z,-392.07
2019-01-12T07:41:35.096Z,-391.62
2019-01-12T07:42:35.089Z,-392.24
2019-01-12T07:43:35.087Z,-389.76
2019-01-12T07:44:35.091Z,-391.02
2019-01-12T07:45:35.064Z,-388.50
2019-01-12T07:46:35.054Z,-389.39
2019-01-12T07:47:36.396Z,-387.42
2019-01-12T07:48:35.046Z,-386.55
2019-01-12T07:49:35.020Z,-393.11
2019-01-12T07:50:35.026Z,-389.63
2019-01-12T07:51:35.037Z,-389.34
2019-01-12T07:52:34.990Z,-391.51
2019-01-12T07:53:34.998Z,-390.58
2019-01-12T07:54:34.975Z,-389.57
2019-01-12T07:55:34.955Z,-389.88
2019-01-12T07:56:34.948Z,-388.39
2019-01-12T07:57:34.945Z,-390.81
2019-01-12T07:58:34.928Z,-390.17
2019-01-12T07:59:34.988Z,-388.19
2019-01-12T08:00:34.903Z,-388.69
2019-01-12T08:01:34.888Z,-385.99
2019-01-12T08:02:34.883Z,-386.89
2019-01-12T08:03:34.890Z,-392.07
2019-01-12T08:04:34.866Z,-390.39
2019-01-12T08:05:34.872Z,-387.77
2019-01-12T08:06:34.838Z,-388.46
2019-01-12T08:07:36.741Z,-389.68
2019-01-12T08:08:34.809Z,-394.47
2019-01-12T08:09:34.801Z,-387.51
2019-01-12T08:10:34.786Z,-389.98
2019-01-12T08:11:34.793Z,-389.26
2019-01-12T08:12:34.777Z,-390.44
2019-01-12T08:13:34.765Z,-389.39
2019-01-12T08:14:34.797Z,-387.02
2019-01-12T08:15:34.735Z,-390.42
2019-01-12T08:16:34.725Z,-388.32
2019-01-12T08:17:34.707Z,-384.81
2019-01-12T08:18:34.704Z,-391.33
2019-01-12T08:19:34.696Z,-388.66
2019-01-12T08:20:34.701Z,-387.80
2019-01-12T08:21:34.667Z,-387.59
2019-01-12T08:22:34.660Z,-389.72
2019-01-12T08:23:35.659Z,-388.08
2019-01-12T08:24:34.652Z,-388.48
2019-01-12T08:25:34.631Z,-391.02
2019-01-12T08:26:34.644Z,-389.22
2019-01-12T08:27:34.604Z,-388.53
2019-01-12T08:28:34.602Z,-390.09
2019-01-12T08:29:34.584Z,-388.49
2019-01-12T08:30:34.586Z,-389.35
2019-01-12T08:31:34.587Z,-388.91
2019-01-12T08:32:34.550Z,-387.48
2019-01-12T08:33:34.540Z,-388.35
2019-01-12T08:34:34.535Z,-388.11
2019-01-12T08:35:34.519Z,-389.27
2019-01-12T08:36:34.648Z,-390.00
2019-01-12T08:37:34.522Z,-386.28
2019-01-12T08:38:34.491Z,-386.61
2019-01-12T08:39:34.480Z,-389.35
2019-01-12T08:40:34.466Z,-388.05
2019-01-12T08:41:34.466Z,-387.12
2019-01-12T08:42:34.465Z,-389.97
2019-01-12T08:43:34.442Z,-392.11
2019-01-12T08:44:34.430Z,-386.25
2019-01-12T08:45:34.416Z,-385.76
2019-01-12T08:46:34.417Z,-385.89
2019-01-12T08:47:34.411Z,-386.24
2019-01-12T08:48:34.398Z,-385.78
2019-01-12T08:49:34.362Z,-388.09
2019-01-12T08:50:34.358Z,-384.74
2019-01-12T08:51:34.355Z,-385.88
2019-01-12T08:52:34.359Z,-387.39
2019-01-12T08:53:34.353Z,-387.09
2019-01-12T08:54:34.319Z,-385.86
2019-01-12T08:55:34.314Z,-386.21
2019-01-12T08:56:38.176Z,-385.54
2019-01-12T08:57:34.292Z,-386.11
2019-01-12T08:58:34.284Z,-383.53
2019-01-12T08:59:34.283Z,-382.76
2019-01-12T09:00:34.267Z,-387.66
2019-01-12T09:01:34.247Z,-384.02
2019-01-12T09:02:34.237Z,-385.34
2019-01-12T09:03:35.214Z,-382.76
2019-01-12T09:04:34.217Z,-384.65
2019-01-12T09:05:34.214Z,-385.47
2019-01-12T09:06:35.173Z,-385.95
2019-01-12T09:07:34.183Z,-386.77
2019-01-12T09:08:34.166Z,-386.30
2019-01-12T09:09:34.158Z,-385.00
2019-01-12T09:10:35.143Z,-387.22
2019-01-12T09:11:34.150Z,-384.45
2019-01-12T09:12:34.144Z,-382.30
2019-01-12T09:13:34.637Z,-385.05
2019-01-12T09:14:34.103Z,-385.00
2019-01-12T09:15:34.090Z,-385.70
2019-01-12T09:16:34.168Z,-386.55
2019-01-12T09:17:34.075Z,-384.20
2019-01-12T09:18:34.715Z,-382.11
2019-01-12T09:19:36.699Z,-388.78
2019-01-12T09:20:34.038Z,-386.79
2019-01-12T09:21:34.031Z,-386.46
2019-01-12T09:22:34.024Z,-381.86
2019-01-12T09:23:34.026Z,-384.88
2019-01-12T09:24:41.596Z,-384.34
2019-01-12T09:25:42.900Z,-385.05
2019-01-12T09:26:44.956Z,-384.37
2019-01-12T09:27:33.966Z,-385.21
2019-01-12T09:28:42.510Z,-383.74
2019-01-12T09:29:43.951Z,-383.73
2019-01-12T09:30:33.936Z,-383.70
2019-01-12T09:31:33.934Z,-384.02
2019-01-12T09:32:33.917Z,-386.60
2019-01-12T09:33:33.897Z,-386.17
2019-01-12T09:34:33.977Z,-385.50
2019-01-12T09:35:33.876Z,-383.69
2019-01-12T09:36:34.861Z,-384.11
2019-01-12T09:37:33.855Z,-387.75
2019-01-12T09:38:34.400Z,-385.70
2019-01-12T09:39:33.841Z,-387.56
2019-01-12T09:40:33.849Z,-383.55
2019-01-12T09:41:33.822Z,-387.49
2019-01-12T09:42:33.801Z,-389.20
2019-01-12T09:43:33.793Z,-386.32
2019-01-12T09:44:33.799Z,-386.91
2019-01-12T09:45:33.781Z,-386.72
2019-01-12T09:46:34.755Z,-386.29
2019-01-12T09:47:36.387Z,-387.04
2019-01-12T09:48:33.748Z,-389.42
2019-01-12T09:49:37.400Z,-389.54
2019-01-12T09:50:35.411Z,-389.32
2019-01-12T09:51:34.714Z,-387.56
2019-01-12T09:52:33.740Z,-387.65
2019-01-12T09:53:33.685Z,-388.94
2019-01-12T09:54:33.677Z,-387.00
2019-01-12T09:55:33.683Z,-388.19
2019-01-12T09:56:33.808Z,-390.43
2019-01-12T09:57:36.403Z,-387.89
2019-01-12T09:58:33.629Z,-392.52
2019-01-12T09:59:33.620Z,-391.08
2019-01-12T10:00:33.633Z,-389.27
2019-01-12T10:01:33.692Z,-389.18
2019-01-12T10:02:33.588Z,-389.83
2019-01-12T10:03:33.580Z,-388.82
2019-01-12T10:04:35.357Z,-393.06
2019-01-12T10:05:33.550Z,-388.47
2019-01-12T10:06:33.567Z,-392.81
2019-01-12T10:07:33.539Z,-388.80
2019-01-12T10:08:33.519Z,-390.41
2019-01-12T10:09:33.520Z,-393.31
2019-01-12T10:10:33.504Z,-389.98
2019-01-12T10:11:33.497Z,-390.16
2019-01-12T10:12:34.457Z,-389.19
2019-01-12T10:13:33.468Z,-393.39
2019-01-12T10:14:33.474Z,-392.09
2019-01-12T10:15:33.445Z,-389.07
2019-01-12T10:16:33.445Z,-389.20
2019-01-12T10:17:34.935Z,-394.65
2019-01-12T10:18:35.418Z,-391.64
2019-01-12T10:19:39.380Z,-388.26
2019-01-12T10:20:33.393Z,-391.62
2019-01-12T10:21:33.377Z,-393.16
2019-01-12T10:22:33.387Z,-389.71
2019-01-12T10:23:33.381Z,-388.24
2019-01-12T10:24:33.353Z,-392.35
2019-01-12T10:25:33.873Z,-390.82
2019-01-12T10:26:34.896Z,-392.69
2019-01-12T10:27:33.336Z,-392.90
2019-01-12T10:28:34.312Z,-391.36
2019-01-12T10:29:33.297Z,-394.56
2019-01-12T10:30:33.287Z,-394.72
2019-01-12T10:31:33.306Z,-392.65
2019-01-12T10:32:33.292Z,-388.23
2019-01-12T10:33:33.258Z,-392.67
2019-01-12T10:34:33.250Z,-388.87
2019-01-12T10:35:33.903Z,-392.51
2019-01-12T10:36:33.227Z,-393.63
2019-01-12T10:37:33.224Z,-393.71
2019-01-12T10:38:33.417Z,-392.37
2019-01-12T10:39:33.188Z,-390.07
2019-01-12T10:40:33.179Z,-391.94
2019-01-12T10:41:33.183Z,-389.96
2019-01-12T10:42:33.912Z,-395.89
2019-01-12T10:43:33.150Z,-392.03
2019-01-12T10:44:33.157Z,-392.35
2019-01-12T10:45:33.920Z,-393.80
2019-01-12T10:46:33.120Z,-391.68
2019-01-12T10:47:33.901Z,-392.25
2019-01-12T10:48:33.444Z,-393.82
2019-01-12T10:49:33.085Z,-389.55
2019-01-12T10:50:33.089Z,-392.30
2019-01-12T10:51:33.074Z,-392.70
2019-01-12T10:52:33.063Z,-390.01
2019-01-12T10:53:33.043Z,-394.99
2019-01-12T10:54:33.047Z,-391.81
2019-01-12T10:55:33.037Z,-390.91
2019-01-12T10:56:33.009Z,-394.13
2019-01-12T10:57:32.999Z,-391.78
2019-01-12T10:58:35.913Z,-393.04
2019-01-12T10:59:32.972Z,-393.76
2019-01-12T11:00:32.973Z,-394.22
2019-01-12T11:01:32.989Z,-392.08
2019-01-12T11:02:32.950Z,-391.48
2019-01-12T11:03:32.939Z,-392.10
2019-01-12T11:04:32.934Z,-395.78
2019-01-12T11:05:32.920Z,-393.91
2019-01-12T11:06:32.925Z,-393.11
2019-01-12T11:07:32.895Z,-391.86
2019-01-12T11:08:32.887Z,-391.07
2019-01-12T11:09:32.871Z,-391.76
2019-01-12T11:10:32.863Z,-392.28
2019-01-12T11:11:32.854Z,-395.82
2019-01-12T11:12:32.859Z,-394.03
2019-01-12T11:13:32.827Z,-394.06
2019-01-12T11:14:32.815Z,-395.09
2019-01-12T11:15:32.810Z,-393.62
2019-01-12T11:16:32.816Z,-396.52
2019-01-12T11:17:32.819Z,-393.87
2019-01-12T11:18:32.805Z,-396.80
2019-01-12T11:19:32.781Z,-394.13
2019-01-12T11:20:32.761Z,-394.21
2019-01-12T11:21:34.406Z,-394.19
2019-01-12T11:22:32.737Z,-391.46
2019-01-12T11:23:32.748Z,-393.31
2019-01-12T11:24:33.384Z,-397.41
2019-01-12T11:25:32.703Z,-391.92
2019-01-12T11:26:32.688Z,-396.68
2019-01-12T11:27:33.415Z,-392.20
2019-01-12T11:28:32.683Z,-394.16
2019-01-12T11:29:32.676Z,-396.26
2019-01-12T11:30:32.667Z,-394.34
2019-01-12T11:31:32.637Z,-394.44
2019-01-12T11:32:32.637Z,-393.11
2019-01-12T11:33:32.617Z,-395.31
2019-01-12T11:34:32.621Z,-392.05
2019-01-12T11:35:32.612Z,-395.56
2019-01-12T11:36:32.581Z,-395.63
2019-01-12T11:37:32.569Z,-396.07
2019-01-12T11:38:32.565Z,-394.85
2019-01-12T11:39:32.554Z,-393.93
2019-01-12T11:40:32.564Z,-392.81
2019-01-12T11:41:32.533Z,-396.00
2019-01-12T11:42:32.519Z,-394.63
2019-01-12T11:43:32.531Z,-391.05
2019-01-12T11:44:33.421Z,-395.29
2019-01-12T11:45:32.479Z,-388.88
2019-01-12T11:46:32.491Z,-388.89
2019-01-12T11:47:32.464Z,-390.02
2019-01-12T11:48:32.457Z,-394.40
2019-01-12T11:49:32.442Z,-391.41
2019-01-12T11:50:32.459Z,-389.64
2019-01-12T11:51:32.420Z,-396.72
2019-01-12T11:52:32.428Z,-392.59
2019-01-12T11:53:32.395Z,-394.74
2019-01-12T11:54:32.386Z,-393.34
2019-01-12T11:55:32.380Z,-392.99
2019-01-12T11:56:32.370Z,-389.89
2019-01-12T11:57:32.360Z,-388.55
2019-01-12T11:58:32.363Z,-398.13
2019-01-12T11:59:32.329Z,-395.23
2019-01-12T12:00:32.325Z,-395.34
2019-01-12T12:01:32.322Z,-393.17
2019-01-12T12:02:37.707Z,-396.69
2019-01-12T12:03:33.326Z,-397.55
2019-01-12T12:04:33.270Z,-394.85
2019-01-12T12:05:34.913Z,-392.01
2019-01-12T12:06:32.272Z,-391.62
2019-01-12T12:07:32.924Z,-391.67